Brick, NJ

3:43 PM EDT on July 26, 2017 (GMT -0400)
Herbertsville | | Change Station

Elev 30 ft 40.09 °N, 74.10 °W | Updated 136 days ago

Partly Cloudy
Partly Cloudy
29.8 °F
Feels Like 22 °F
N
8.1
Wind Variable Wind from North
Gusts 12.8 mph

Today
High -- | Low -- °F
--% Chance of Precip.
Yesterday
High -- | Low -- °F
Precip. -- in
Pressure 30.22 in
Visibility 10.0 miles
Clouds Mostly Cloudy 3100 ft
Windchill 22 °F
Dew Point 18 °F
Humidity 60%
Rainfall 0.00 in
Snow Depth Not available.
5:49 AM 8:16 PM
Waxing Crescent, 15% visible
SPECI KBLM 261909Z AUTO 13006KT 10SM BKN031 23/15 A3022 RMK AO2
Pressure 30.22 in
Visibility 10.0 miles
Clouds Mostly Cloudy 3100 ft
Windchill 22 °F
Dew Point 18 °F
Humidity 60%
Rainfall 0.00 in
Snow Depth Not available.
5:49 AM 8:16 PM
Waxing Crescent, 15% visible
SPECI KBLM 261909Z AUTO 13006KT 10SM BKN031 23/15 A3022 RMK AO2

Get Severe Weather Alerts

Thanks for signing up!

Be on the lookout for a verification email in your inbox.

You'll start receiving the daily forecast at 6 AM.

×

10-Day Weather Forecast

Almanac

Astronomy

Jul. 26, 2017 Rise Set
Actual Time
Civil Twilight
Nautical Twilight
Astronomical Twilight
Moon
Length of Visible Light
Length of Day
Tomorrow will be .
, % of the Moon is Illuminated

Today's Extremes

State Highs State Lows

Community

WunderPhotos

Category 6

Welcome to Category 6. This is the collective home for Weather Underground's featured writeups by Dr. Jeff Masters (right), Bob Henson (left), Chris Burt, and other regular contributors.

Nearby

Air Quality

  Air Quality AQ Index Pollutant
Not available.

Snow Depth

Station Depth Elevation

Earthquake Activity

City Distance Mag. Time & Date
Minimum magnitude displayed is 2.5.

Coastal Water Temperatures

Place Temperature

Stations

Nearby Weather Stations

Station Location Temp. Windchill Dew Point Humidity Wind Precip. Elev Updated Type
                   

Watches & Warnings

There are currently no watches in effect.